Time;durP1;ratioP1;P1;durP2;ratioP2;P2;SDS_P1;SDS_P2;PMS_P1;PMS_P2;Temp;Humidity;BMP_temperature;BMP_pressure;BME280_temperature;BME280_humidity;BME280_pressure;Samples;Min_cycle;Max_cycle;Signal;HPM_P1;HPM_P2
2023/07/28 00:00:45;;;;;;;1.00;0.90;;;19.40;99.90;;;;;;5057659;28;20166;-82
2023/07/28 00:03:12;;;;;;;1.33;1.23;;;19.40;99.90;;;;;;5022549;28;20118;-83
2023/07/28 00:05:39;;;;;;;1.80;1.42;;;19.40;99.90;;;;;;5057501;28;20052;-82
2023/07/28 00:08:06;;;;;;;1.17;1.00;;;19.50;98.60;;;;;;5041288;28;20102;-82
2023/07/28 00:10:33;;;;;;;1.40;1.10;;;19.40;87.60;;;;;;5052314;28;20048;-82
2023/07/28 00:13:01;;;;;;;1.42;1.20;;;19.40;82.30;;;;;;5065946;28;20420;-83
2023/07/28 00:15:28;;;;;;;1.52;1.27;;;19.40;87.20;;;;;;5041146;28;20040;-83
2023/07/28 00:17:56;;;;;;;1.20;1.10;;;19.40;46.60;;;;;;5072237;28;20044;-83
2023/07/28 00:20:22;;;;;;;1.40;1.20;;;19.40;14.70;;;;;;5059781;28;20181;-82
2023/07/28 00:22:50;;;;;;;2.05;1.15;;;19.40;4.90;;;;;;5048803;28;20445;-82
2023/07/28 00:25:17;;;;;;;1.70;1.13;;;19.30;2.10;;;;;;5034549;28;20497;-82
2023/07/28 00:27:44;;;;;;;1.77;1.40;;;19.30;16.80;;;;;;5021013;28;20049;-83
2023/07/28 00:30:11;;;;;;;1.50;1.20;;;19.20;11.80;;;;;;5040221;28;20397;-83
2023/07/28 00:32:38;;;;;;;1.23;1.08;;;19.20;36.10;;;;;;5047652;28;20128;-83
2023/07/28 00:35:05;;;;;;;1.80;1.20;;;19.20;48.80;;;;;;5054695;28;20044;-83
2023/07/28 00:37:32;;;;;;;1.10;1.00;;;19.20;32.60;;;;;;5041179;28;20052;-82
2023/07/28 00:39:59;;;;;;;1.23;1.08;;;19.20;46.00;;;;;;5043326;28;20048;-82
2023/07/28 00:42:26;;;;;;;1.20;1.08;;;19.10;53.90;;;;;;5060670;28;20521;-83
2023/07/28 00:44:53;;;;;;;1.42;1.05;;;19.20;52.10;;;;;;5041147;28;20048;-83
2023/07/28 00:47:21;;;;;;;1.15;1.05;;;19.20;54.30;;;;;;5059479;28;20086;-82
2023/07/28 00:49:48;;;;;;;1.42;1.27;;;19.20;23.90;;;;;;5060172;28;20051;-83
2023/07/28 00:52:15;;;;;;;0.93;0.80;;;19.20;11.20;;;;;;5039443;28;20053;-83
2023/07/28 00:54:41;;;;;;;1.15;0.93;;;19.20;14.90;;;;;;5040522;28;20056;-82
2023/07/28 00:57:09;;;;;;;1.58;1.38;;;19.20;7.20;;;;;;5048311;28;20188;-82
2023/07/28 00:59:36;;;;;;;1.40;1.13;;;19.20;17.60;;;;;;5064559;28;20100;-83
2023/07/28 01:02:03;;;;;;;1.52;1.10;;;19.20;7.60;;;;;;5062015;28;20415;-82
2023/07/28 01:04:30;;;;;;;1.67;1.02;;;19.20;2.10;;;;;;5039990;28;20105;-83
2023/07/28 01:07:03;;;;;;;1.23;1.08;;;19.20;1.00;;;;;;5046571;28;20131;-83
2023/07/28 01:09:37;;;;;;;1.33;0.98;;;19.20;1.00;;;;;;5063829;28;20411;-82
2023/07/28 01:12:09;;;;;;;1.67;1.10;;;19.20;1.00;;;;;;5060825;28;20610;-83
2023/07/28 01:14:36;;;;;;;0.85;0.85;;;19.20;1.00;;;;;;5042728;28;20514;-83
2023/07/28 01:17:03;;;;;;;1.17;1.05;;;19.20;1.00;;;;;;5071622;28;20047;-83
2023/07/28 01:19:30;;;;;;;1.20;0.88;;;19.20;1.00;;;;;;5050852;28;20098;-83
2023/07/28 01:22:30;;;;;;;1.20;1.00;;;19.20;1.00;;;;;;5043772;28;20384;-82
2023/07/28 01:25:30;;;;;;;1.00;0.90;;;19.20;1.00;;;;;;5057223;28;20048;-83
2023/07/28 01:27:57;;;;;;;0.93;0.73;;;19.30;1.00;;;;;;5061697;28;20052;-82
2023/07/28 01:30:26;;;;;;;1.20;0.95;;;19.20;1.00;;;;;;5057463;28;20052;-83
2023/07/28 01:32:56;;;;;;;1.27;0.90;;;19.20;1.00;;;;;;5025302;28;20072;-82
2023/07/28 01:35:25;;;;;;;1.00;0.90;;;19.30;1.00;;;;;;5042913;28;20050;-82
2023/07/28 01:37:52;;;;;;;1.05;0.80;;;19.20;1.00;;;;;;5030241;28;20132;-82
2023/07/28 01:40:19;;;;;;;1.20;1.00;;;19.30;1.00;;;;;;5028863;28;20057;-83
2023/07/28 01:42:46;;;;;;;1.40;0.88;;;19.20;1.00;;;;;;5050942;28;20051;-83
2023/07/28 01:45:13;;;;;;;1.52;0.90;;;19.20;1.00;;;;;;5078122;28;20044;-83
2023/07/28 01:47:39;;;;;;;1.75;1.15;;;19.20;1.00;;;;;;5046426;28;20097;-82
2023/07/28 01:50:07;;;;;;;1.08;0.82;;;19.20;1.00;;;;;;5046592;28;20049;-83
2023/07/28 01:52:33;;;;;;;1.20;0.90;;;19.20;1.00;;;;;;5026925;28;20541;-82
2023/07/28 01:55:01;;;;;;;1.20;0.80;;;19.20;1.00;;;;;;5051698;28;20463;-83
2023/07/28 01:57:27;;;;;;;1.30;0.80;;;19.20;1.00;;;;;;5029040;28;20052;-82
2023/07/28 01:59:54;;;;;;;1.13;0.82;;;19.20;1.00;;;;;;5063378;28;20613;-82
2023/07/28 02:02:21;;;;;;;0.90;0.80;;;19.20;99.90;;;;;;5028518;28;20150;-82
2023/07/28 02:04:48;;;;;;;0.80;0.77;;;19.20;99.90;;;;;;5025891;28;20131;-82
2023/07/28 02:07:15;;;;;;;1.05;0.73;;;19.20;99.90;;;;;;5048814;28;20113;-83
2023/07/28 02:09:42;;;;;;;1.45;1.00;;;19.10;99.90;;;;;;5027678;28;20118;-82
2023/07/28 02:12:09;;;;;;;1.13;0.80;;;19.10;99.90;;;;;;5045833;28;20051;-82
2023/07/28 02:14:36;;;;;;;1.05;0.80;;;19.10;99.90;;;;;;5048560;28;20521;-82
2023/07/28 02:17:03;;;;;;;1.70;0.77;;;19.10;99.90;;;;;;5027776;28;20041;-82
2023/07/28 02:19:30;;;;;;;1.58;0.82;;;19.10;99.90;;;;;;5063360;28;20459;-82
2023/07/28 02:21:57;;;;;;;1.25;0.95;;;19.10;99.90;;;;;;5043365;28;20048;-83
2023/07/28 02:24:24;;;;;;;0.93;0.70;;;19.10;99.90;;;;;;5043493;28;20164;-82
2023/07/28 02:26:51;;;;;;;1.00;0.70;;;19.10;99.90;;;;;;5081289;28;20048;-82
2023/07/28 02:29:18;;;;;;;0.88;0.80;;;19.10;99.90;;;;;;5065521;28;20058;-82
2023/07/28 02:31:44;;;;;;;0.90;0.70;;;19.00;99.90;;;;;;5041161;28;20500;-82
2023/07/28 02:34:12;;;;;;;0.50;0.40;;;19.00;99.90;;;;;;5057764;28;20076;-83
2023/07/28 02:36:39;;;;;;;0.47;0.47;;;19.00;99.90;;;;;;5062308;28;20040;-82
2023/07/28 02:39:06;;;;;;;0.70;0.70;;;19.00;99.90;;;;;;5046503;28;20064;-83
2023/07/28 02:41:33;;;;;;;0.65;0.47;;;19.00;99.90;;;;;;5062589;28;20098;-82
2023/07/28 02:43:59;;;;;;;0.52;0.52;;;19.00;99.90;;;;;;5027649;28;20048;-82
2023/07/28 02:46:26;;;;;;;0.65;0.60;;;19.00;1.30;;;;;;5041849;28;20826;-82
2023/07/28 02:48:53;;;;;;;1.20;0.65;;;18.90;99.90;;;;;;5042673;28;20045;-82
2023/07/28 02:51:20;;;;;;;0.47;0.47;;;18.90;99.90;;;;;;5063459;28;20056;-82
2023/07/28 02:53:47;;;;;;;0.45;0.40;;;18.90;94.60;;;;;;5063929;28;20079;-81
2023/07/28 02:56:13;;;;;;;0.40;0.40;;;18.90;91.90;;;;;;5046020;28;20044;-81
2023/07/28 02:58:41;;;;;;;0.40;0.40;;;18.80;1.00;;;;;;5048318;28;20584;-81
2023/07/28 03:01:07;;;;;;;0.65;0.40;;;18.80;1.00;;;;;;5024534;28;20052;-80
2023/07/28 03:03:34;;;;;;;0.50;0.40;;;18.70;1.00;;;;;;5030369;28;20555;-81
2023/07/28 03:06:01;;;;;;;0.35;0.30;;;18.70;1.00;;;;;;5042692;28;20115;-82
2023/07/28 03:08:28;;;;;;;0.30;0.30;;;18.70;1.00;;;;;;5036774;28;20091;-81
2023/07/28 03:10:59;;;;;;;0.30;0.30;;;18.60;1.00;;;;;;5024634;28;20052;-81
2023/07/28 03:13:25;;;;;;;0.47;0.47;;;18.60;17.00;;;;;;5029666;28;20052;-82
2023/07/28 03:15:52;;;;;;;0.30;0.30;;;18.60;56.80;;;;;;5047287;28;20380;-81
2023/07/28 03:18:19;;;;;;;0.43;0.30;;;18.60;90.50;;;;;;5063972;28;20471;-82
2023/07/28 03:20:46;;;;;;;0.45;0.22;;;18.60;17.50;;;;;;5024694;28;20068;-82
2023/07/28 03:23:14;;;;;;;0.40;0.40;;;18.60;1.00;;;;;;5027793;28;20502;-81
2023/07/28 03:25:40;;;;;;;0.20;0.20;;;18.60;1.00;;;;;;5024855;28;20052;-81
2023/07/28 03:28:07;;;;;;;0.40;0.40;;;18.50;24.50;;;;;;5024963;28;20049;-81
2023/07/28 03:30:34;;;;;;;0.40;0.40;;;18.60;95.20;;;;;;5031952;28;20072;-83
2023/07/28 03:33:01;;;;;;;0.40;0.40;;;18.60;99.90;;;;;;5026649;28;20045;-82
2023/07/28 03:35:28;;;;;;;0.38;0.38;;;18.50;99.90;;;;;;5026198;28;20091;-83
2023/07/28 03:37:55;;;;;;;0.43;0.30;;;18.50;99.90;;;;;;5025534;28;20069;-81
2023/07/28 03:40:21;;;;;;;0.63;0.50;;;18.50;99.90;;;;;;5045217;28;20048;-83
2023/07/28 03:42:48;;;;;;;0.40;0.30;;;18.50;99.90;;;;;;5029767;28;20748;-83
2023/07/28 03:45:15;;;;;;;0.25;0.25;;;18.50;99.90;;;;;;5042282;28;20041;-82
2023/07/28 03:47:42;;;;;;;0.25;0.25;;;18.40;1.00;;;;;;5025730;28;20044;-83
2023/07/28 03:50:09;;;;;;;0.15;0.15;;;18.40;1.00;;;;;;5064209;28;20048;-82
2023/07/28 03:52:36;;;;;;;0.38;0.30;;;18.40;1.00;;;;;;5064831;28;20129;-83
2023/07/28 03:55:03;;;;;;;0.40;0.30;;;18.40;1.00;;;;;;5080815;28;20055;-83
2023/07/28 03:57:30;;;;;;;0.30;0.30;;;18.40;1.00;;;;;;5082314;28;20535;-82
2023/07/28 03:59:57;;;;;;;0.40;0.30;;;18.40;1.00;;;;;;5065331;28;20056;-83
2023/07/28 04:02:24;;;;;;;0.30;0.30;;;18.40;1.00;;;;;;5081037;28;20048;-83
2023/07/28 04:04:55;;;;;;;0.20;0.20;;;18.40;99.90;;;;;;5044918;28;20055;-83
2023/07/28 04:07:21;;;;;;;0.20;0.20;;;18.40;99.90;;;;;;5072380;28;20048;-84
2023/07/28 04:09:48;;;;;;;0.30;0.30;;;18.40;99.90;;;;;;5082236;28;20941;-83
2023/07/28 04:12:15;;;;;;;0.20;0.20;;;18.40;99.90;;;;;;5065517;28;20093;-81
2023/07/28 04:14:42;;;;;;;0.30;0.30;;;18.40;99.90;;;;;;5065546;28;20074;-83
2023/07/28 04:17:09;;;;;;;0.60;0.30;;;18.30;1.00;;;;;;5061407;28;20056;-82
2023/07/28 04:19:36;;;;;;;0.32;0.32;;;18.30;99.90;;;;;;5049374;28;20658;-83
2023/07/28 04:22:03;;;;;;;0.40;0.32;;;18.20;99.90;;;;;;5032507;28;20056;-82
2023/07/28 04:24:30;;;;;;;0.20;0.20;;;18.20;99.90;;;;;;5050533;28;20048;-82
2023/07/28 04:26:57;;;;;;;0.40;0.30;;;18.20;99.90;;;;;;5033697;28;20048;-82
2023/07/28 04:29:24;;;;;;;0.25;0.25;;;18.20;99.90;;;;;;5050635;28;20056;-82
2023/07/28 04:31:50;;;;;;;0.20;0.20;;;18.30;99.90;;;;;;5047989;28;20044;-82
2023/07/28 04:34:17;;;;;;;0.28;0.28;;;18.30;99.90;;;;;;5075958;28;20048;-83
2023/07/28 04:36:44;;;;;;;0.68;0.32;;;18.40;99.90;;;;;;5061533;28;20577;-82
2023/07/28 04:39:11;;;;;;;0.20;0.20;;;18.40;99.90;;;;;;5067553;28;20044;-82
2023/07/28 04:41:38;;;;;;;0.15;0.15;;;18.40;74.80;;;;;;5066667;28;20055;-83
2023/07/28 04:44:05;;;;;;;0.22;0.20;;;18.40;1.00;;;;;;5046701;28;20557;-83
2023/07/28 04:46:32;;;;;;;0.10;0.10;;;18.40;99.90;;;;;;5048613;28;20044;-83
2023/07/28 04:48:59;;;;;;;0.30;0.20;;;18.40;99.90;;;;;;5062723;28;20044;-82
2023/07/28 04:51:26;;;;;;;0.30;0.30;;;18.40;99.90;;;;;;5065524;28;20083;-82
2023/07/28 04:53:53;;;;;;;0.10;0.10;;;18.40;1.00;;;;;;5070806;28;20501;-82
2023/07/28 04:56:20;;;;;;;0.65;0.30;;;18.40;1.00;;;;;;5041839;28;20056;-82
2023/07/28 04:58:47;;;;;;;0.10;0.10;;;18.40;1.00;;;;;;5049205;28;20103;-82
2023/07/28 05:01:14;;;;;;;0.45;0.10;;;18.40;99.90;;;;;;5047567;28;20506;-82
2023/07/28 05:03:41;;;;;;;0.20;0.20;;;18.40;99.90;;;;;;5066142;28;20564;-82
2023/07/28 05:06:07;;;;;;;0.20;0.20;;;18.40;99.90;;;;;;5044030;28;20052;-82
2023/07/28 05:08:36;;;;;;;0.20;0.20;;;18.40;99.90;;;;;;5060125;28;20422;-82
2023/07/28 05:11:03;;;;;;;0.20;0.20;;;18.40;99.90;;;;;;5024224;28;20122;-82
2023/07/28 05:13:30;;;;;;;0.20;0.20;;;18.40;99.90;;;;;;5037228;28;20044;-83
2023/07/28 05:15:57;;;;;;;0.20;0.17;;;18.40;99.90;;;;;;5070861;28;20096;-82
2023/07/28 05:18:24;;;;;;;0.13;0.13;;;18.30;99.90;;;;;;5038003;28;20055;-83
2023/07/28 05:20:50;;;;;;;0.20;0.20;;;18.40;99.90;;;;;;5069526;28;20055;-83
2023/07/28 05:23:17;;;;;;;0.10;0.10;;;18.40;99.90;;;;;;5039306;28;20812;-83
2023/07/28 05:25:45;;;;;;;0.50;0.30;;;18.40;99.90;;;;;;5068957;28;20044;-82
2023/07/28 05:28:12;;;;;;;0.52;0.40;;;18.40;99.90;;;;;;5057344;28;20091;-83
2023/07/28 05:30:39;;;;;;;0.20;0.20;;;18.40;99.90;;;;;;5066297;28;20179;-82
2023/07/28 05:33:06;;;;;;;1.02;0.50;;;18.50;99.90;;;;;;5044231;28;20134;-82
2023/07/28 05:35:33;;;;;;;0.10;0.10;;;18.50;99.90;;;;;;5046099;28;20471;-84
2023/07/28 05:38:00;;;;;;;0.75;0.57;;;18.40;1.00;;;;;;5020508;28;20045;-83
2023/07/28 05:40:27;;;;;;;0.43;0.32;;;18.40;99.90;;;;;;5059869;28;20109;-82
2023/07/28 05:42:54;;;;;;;0.20;0.20;;;18.40;99.90;;;;;;5027991;28;20420;-81
2023/07/28 05:45:22;;;;;;;0.28;0.20;;;18.40;1.00;;;;;;5055681;28;20636;-82
2023/07/28 05:47:48;;;;;;;0.30;0.20;;;18.40;1.00;;;;;;5056621;28;20129;-82
2023/07/28 05:50:16;;;;;;;0.20;0.20;;;18.40;93.40;;;;;;5031848;28;20053;-82
2023/07/28 05:52:42;;;;;;;0.22;0.20;;;18.30;99.90;;;;;;5055076;28;20121;-82
2023/07/28 05:55:09;;;;;;;0.28;0.28;;;18.30;99.90;;;;;;5029342;28;20060;-82
2023/07/28 05:57:36;;;;;;;0.30;0.30;;;18.30;99.90;;;;;;5048478;28;20080;-83
2023/07/28 06:00:04;;;;;;;0.30;0.20;;;18.40;99.90;;;;;;5041214;28;20579;-83
2023/07/28 06:02:31;;;;;;;0.28;0.20;;;18.40;99.90;;;;;;5041823;28;20079;-83
2023/07/28 06:04:57;;;;;;;0.20;0.20;;;18.50;99.90;;;;;;5035839;28;20068;-83
2023/07/28 06:07:26;;;;;;;0.25;0.25;;;18.70;99.90;;;;;;5030498;28;20044;-82
2023/07/28 06:09:54;;;;;;;0.43;0.40;;;18.80;1.00;;;;;;5054515;28;20642;-83
2023/07/28 06:12:20;;;;;;;0.30;0.20;;;18.90;99.90;;;;;;5040916;28;20045;-82
2023/07/28 06:14:47;;;;;;;0.57;0.20;;;19.00;99.90;;;;;;5049550;28;20044;-83
2023/07/28 06:17:14;;;;;;;0.50;0.30;;;19.00;99.90;;;;;;5056281;28;20138;-82
2023/07/28 06:19:41;;;;;;;0.65;0.52;;;19.00;99.90;;;;;;5061289;28;20044;-82
2023/07/28 06:22:08;;;;;;;0.50;0.45;;;18.90;99.90;;;;;;5060259;28;20076;-83
2023/07/28 06:24:35;;;;;;;0.20;0.20;;;18.80;99.90;;;;;;5034732;28;20041;-82
2023/07/28 06:27:07;;;;;;;0.20;0.20;;;18.90;99.90;;;;;;5028796;28;20064;-83
2023/07/28 06:29:34;;;;;;;0.17;0.17;;;18.90;80.00;;;;;;5009420;28;20055;-83
2023/07/28 06:32:01;;;;;;;0.10;0.10;;;18.90;1.00;;;;;;5059008;28;20045;-83
2023/07/28 06:34:28;;;;;;;0.13;0.13;;;18.90;99.90;;;;;;5030303;28;20059;-83
2023/07/28 06:36:55;;;;;;;0.10;0.10;;;19.00;99.90;;;;;;5058958;28;20041;-83
2023/07/28 06:39:22;;;;;;;0.38;0.25;;;19.00;17.20;;;;;;5044577;28;20132;-83
2023/07/28 06:41:49;;;;;;;0.25;0.20;;;19.00;1.00;;;;;;5025656;28;20116;-83
2023/07/28 06:44:15;;;;;;;0.17;0.17;;;18.90;1.00;;;;;;5029412;28;20060;-82
2023/07/28 06:46:42;;;;;;;0.10;0.10;;;18.90;1.00;;;;;;5036459;28;20068;-82
2023/07/28 06:49:11;;;;;;;0.30;0.20;;;19.00;99.90;;;;;;5040518;28;20102;-83
2023/07/28 06:51:38;;;;;;;0.10;0.10;;;19.10;99.90;;;;;;5028455;28;20158;-83
2023/07/28 06:54:09;;;;;;;0.30;0.20;;;19.10;1.00;;;;;;5049662;28;20090;-79
2023/07/28 06:56:35;;;;;;;0.15;0.15;;;19.20;1.00;;;;;;5058576;28;20055;-79
2023/07/28 06:59:02;;;;;;;0.10;0.10;;;19.20;99.90;;;;;;5011127;28;20132;-79
2023/07/28 07:01:43;;;;;;;0.10;0.10;;;19.30;99.90;;;;;;5028203;28;20056;-79
2023/07/28 07:04:11;;;;;;;0.38;0.20;;;19.30;99.90;;;;;;5046132;28;20516;-79
2023/07/28 07:06:38;;;;;;;0.30;0.20;;;19.30;99.90;;;;;;5042428;28;20048;-79
2023/07/28 07:09:06;;;;;;;0.00;0.00;;;19.40;99.90;;;;;;5048649;28;20049;-80
2023/07/28 07:11:33;;;;;;;0.20;0.10;;;19.50;1.00;;;;;;5034853;28;20132;-80
2023/07/28 07:14:00;;;;;;;0.10;0.10;;;19.50;1.00;;;;;;5055228;28;20066;-79
2023/07/28 07:16:27;;;;;;;0.10;0.10;;;19.50;1.00;;;;;;5024884;28;20084;-78
2023/07/28 07:18:54;;;;;;;0.10;0.10;;;19.50;1.00;;;;;;5038760;28;20072;-79
2023/07/28 07:21:22;;;;;;;0.10;0.10;;;19.50;99.90;;;;;;5040845;28;20052;-79
2023/07/28 07:23:49;;;;;;;0.10;0.10;;;19.50;99.90;;;;;;5060596;28;20083;-79
2023/07/28 07:26:16;;;;;;;0.17;0.10;;;19.50;99.90;;;;;;5028736;28;20044;-79
2023/07/28 07:28:42;;;;;;;0.28;0.15;;;19.50;99.90;;;;;;5049036;28;20053;-78
2023/07/28 07:31:13;;;;;;;0.63;0.20;;;19.50;99.90;;;;;;5024337;28;20153;-79
2023/07/28 07:33:41;;;;;;;0.10;0.10;;;19.50;99.90;;;;;;5052464;28;20064;-79
2023/07/28 07:36:15;;;;;;;0.22;0.20;;;19.50;1.00;;;;;;5024865;28;20098;-79
2023/07/28 07:38:43;;;;;;;0.10;0.10;;;19.50;1.00;;;;;;5021982;28;20278;-78
2023/07/28 07:41:11;;;;;;;0.20;0.20;;;19.50;1.00;;;;;;5026274;28;20477;-78
2023/07/28 07:43:39;;;;;;;0.13;0.13;;;19.60;99.90;;;;;;5038841;28;20068;-78
2023/07/28 07:46:05;;;;;;;0.15;0.15;;;19.60;99.90;;;;;;5047113;28;20055;-78
2023/07/28 07:48:33;;;;;;;0.20;0.15;;;19.70;99.90;;;;;;5050163;28;20088;-78
2023/07/28 07:50:59;;;;;;;0.22;0.20;;;19.70;99.90;;;;;;5037192;28;20048;-80
2023/07/28 07:53:27;;;;;;;0.10;0.10;;;19.70;99.90;;;;;;5023926;28;20053;-80
2023/07/28 07:55:53;;;;;;;0.20;0.20;;;19.70;99.90;;;;;;5056941;28;20123;-81
2023/07/28 07:58:20;;;;;;;0.20;0.10;;;19.60;99.90;;;;;;5028066;28;20120;-81
2023/07/28 08:00:47;;;;;;;0.10;0.10;;;19.70;99.90;;;;;;5029362;28;20457;-80
2023/07/28 08:03:14;;;;;;;0.10;0.10;;;19.70;99.90;;;;;;5034148;28;20073;-80
2023/07/28 08:05:41;;;;;;;0.10;0.10;;;19.70;99.90;;;;;;5028584;28;20053;-80
2023/07/28 08:08:08;;;;;;;0.10;0.10;;;19.90;99.90;;;;;;5030417;28;20480;-79
2023/07/28 08:10:35;;;;;;;0.10;0.10;;;20.10;99.90;;;;;;5032221;28;20083;-81
2023/07/28 08:13:03;;;;;;;0.20;0.20;;;20.30;99.90;;;;;;5041432;28;20036;-80
2023/07/28 08:15:30;;;;;;;0.10;0.10;;;20.40;99.90;;;;;;5031413;28;20048;-81
2023/07/28 08:17:57;;;;;;;0.13;0.10;;;20.60;99.90;;;;;;5037023;28;20449;-79
2023/07/28 08:20:25;;;;;;;0.00;0.00;;;20.70;99.90;;;;;;5022477;28;20454;-80
2023/07/28 08:22:52;;;;;;;0.10;0.10;;;20.60;99.90;;;;;;5032512;28;20043;-79
2023/07/28 08:25:19;;;;;;;0.30;0.30;;;20.40;99.90;;;;;;5031794;28;20044;-78
2023/07/28 08:27:46;;;;;;;0.10;0.10;;;20.20;99.90;;;;;;5037018;28;20644;-79
2023/07/28 08:30:15;;;;;;;0.15;0.15;;;20.20;99.90;;;;;;5054576;28;20056;-79
2023/07/28 08:32:42;;;;;;;0.20;0.20;;;20.20;99.90;;;;;;5045287;28;20052;-79
2023/07/28 08:35:09;;;;;;;0.43;0.20;;;20.20;99.90;;;;;;5036923;28;20056;-78
2023/07/28 08:37:36;;;;;;;0.22;0.20;;;20.30;99.90;;;;;;5023191;28;20053;-80
2023/07/28 08:40:07;;;;;;;0.10;0.10;;;20.40;99.90;;;;;;5043137;28;20472;-79
2023/07/28 08:42:38;;;;;;;0.30;0.20;;;20.70;99.90;;;;;;5048102;28;20411;-79
2023/07/28 08:45:05;;;;;;;0.75;0.52;;;21.00;99.90;;;;;;5037980;28;20053;-81
2023/07/28 08:47:32;;;;;;;0.10;0.10;;;21.20;99.90;;;;;;5058957;28;20049;-79
2023/07/28 08:50:00;;;;;;;0.10;0.10;;;21.20;99.90;;;;;;5037580;28;20060;-82
2023/07/28 08:52:27;;;;;;;0.32;0.20;;;21.10;99.90;;;;;;5030876;28;20286;-82
2023/07/28 08:54:54;;;;;;;0.20;0.20;;;20.80;99.90;;;;;;5012400;28;20056;-82
2023/07/28 08:57:21;;;;;;;0.10;0.10;;;20.70;99.90;;;;;;5042671;28;20144;-80
2023/07/28 08:59:48;;;;;;;0.13;0.10;;;20.60;99.90;;;;;;5055837;28;20049;-80
2023/07/28 09:02:16;;;;;;;0.15;0.15;;;20.70;99.90;;;;;;5021151;28;20057;-80
2023/07/28 09:04:44;;;;;;;0.10;0.10;;;20.80;99.90;;;;;;5032068;28;20052;-80
2023/07/28 09:07:11;;;;;;;0.47;0.28;;;20.90;99.90;;;;;;5027916;28;20056;-79
2023/07/28 09:09:38;;;;;;;0.10;0.10;;;21.00;99.90;;;;;;5019394;28;20400;-80
2023/07/28 09:12:05;;;;;;;0.10;0.10;;;21.20;99.90;;;;;;5045790;28;20103;-79
2023/07/28 09:14:33;;;;;;;0.15;0.10;;;21.30;99.90;;;;;;5033918;28;20739;-80
2023/07/28 09:17:08;;;;;;;0.10;0.10;;;21.40;99.90;;;;;;5033777;28;20095;-80
2023/07/28 09:19:34;;;;;;;0.25;0.20;;;21.50;99.90;;;;;;5034632;28;20052;-80
2023/07/28 09:22:02;;;;;;;0.20;0.13;;;21.60;99.90;;;;;;5026920;28;20238;-81
2023/07/28 09:24:32;;;;;;;0.10;0.10;;;21.60;99.90;;;;;;5044596;28;20052;-80
2023/07/28 09:27:00;;;;;;;0.10;0.10;;;21.70;99.90;;;;;;5005772;28;20154;-80
2023/07/28 09:29:29;;;;;;;0.13;0.13;;;21.60;99.90;;;;;;5010420;28;20159;-81
2023/07/28 09:32:06;;;;;;;0.03;0.03;;;21.50;99.90;;;;;;5041713;28;20133;-81
2023/07/28 09:34:33;;;;;;;0.20;0.20;;;21.60;99.90;;;;;;5031702;28;20048;-80
2023/07/28 09:37:00;;;;;;;0.20;0.10;;;21.60;99.90;;;;;;5029421;28;20049;-80
2023/07/28 09:39:27;;;;;;;0.10;0.10;;;21.50;99.90;;;;;;5029734;28;20135;-80
2023/07/28 09:41:58;;;;;;;0.15;0.15;;;21.50;99.90;;;;;;5029635;28;20056;-80
2023/07/28 09:44:25;;;;;;;0.20;0.20;;;21.50;99.90;;;;;;5026961;28;20053;-81
2023/07/28 09:46:54;;;;;;;0.20;0.20;;;21.40;99.90;;;;;;5014028;28;20483;-81
2023/07/28 09:49:27;;;;;;;0.10;0.10;;;21.40;99.90;;;;;;5005783;28;20463;-80
2023/07/28 09:51:54;;;;;;;0.10;0.10;;;21.50;99.90;;;;;;5038867;28;20214;-80
2023/07/28 09:54:27;;;;;;;0.05;0.05;;;21.50;99.90;;;;;;5040199;28;20064;-79
2023/07/28 09:56:57;;;;;;;0.20;0.20;;;21.60;99.90;;;;;;5037330;28;20049;-81
2023/07/28 09:59:29;;;;;;;0.20;0.20;;;21.90;99.90;;;;;;5021753;28;20132;-81
2023/07/28 10:01:57;;;;;;;0.22;0.22;;;22.30;99.90;;;;;;5018347;28;20097;-81
2023/07/28 10:04:24;;;;;;;0.20;0.20;;;22.50;99.90;;;;;;5052785;28;20045;-81
2023/07/28 10:06:56;;;;;;;0.10;0.10;;;22.80;99.90;;;;;;5026973;28;20735;-81
2023/07/28 10:09:24;;;;;;;0.35;0.20;;;23.10;99.90;;;;;;5025553;28;20348;-81
2023/07/28 10:11:51;;;;;;;0.10;0.10;;;23.20;99.90;;;;;;5010375;28;20793;-81
2023/07/28 10:14:30;;;;;;;0.20;0.20;;;23.00;99.90;;;;;;5018617;28;20059;-81
2023/07/28 10:16:58;;;;;;;0.25;0.25;;;22.90;99.80;;;;;;5022173;28;20140;-81
2023/07/28 10:19:26;;;;;;;0.20;0.20;;;22.80;99.90;;;;;;5025780;28;20048;-80
2023/07/28 10:22:06;;;;;;;0.38;0.35;;;22.80;99.70;;;;;;5031801;28;20510;-80
2023/07/28 10:24:53;;;;;;;0.63;0.47;;;22.70;99.90;;;;;;5023195;28;20060;-81
2023/07/28 10:27:39;;;;;;;0.68;0.60;;;22.70;98.40;;;;;;5026436;28;20064;-81
2023/07/28 10:30:12;;;;;;;0.40;0.40;;;22.60;98.60;;;;;;5038290;28;20053;-81
2023/07/28 10:32:39;;;;;;;0.52;0.30;;;22.80;97.70;;;;;;5028014;28;20121;-81
2023/07/28 10:35:27;;;;;;;0.43;0.35;;;23.00;96.60;;;;;;5026103;28;20139;-81
2023/07/28 10:37:56;;;;;;;0.22;0.20;;;23.00;92.80;;;;;;5044550;28;20056;-81
2023/07/28 10:40:34;;;;;;;0.32;0.30;;;23.00;92.10;;;;;;5023663;28;20053;-82
2023/07/28 10:43:03;;;;;;;0.45;0.30;;;23.00;91.10;;;;;;5036875;28;20081;-82
2023/07/28 10:45:31;;;;;;;0.30;0.30;;;23.10;90.40;;;;;;5036733;28;20057;-82
2023/07/28 10:48:00;;;;;;;0.88;0.50;;;22.90;90.40;;;;;;5037137;28;20134;-81
2023/07/28 10:50:28;;;;;;;1.27;0.95;;;23.00;87.30;;;;;;5055103;28;20048;-81
2023/07/28 10:52:55;;;;;;;2.20;1.60;;;23.00;84.50;;;;;;5021419;28;20072;-81
2023/07/28 10:55:23;;;;;;;1.95;1.52;;;22.80;81.00;;;;;;5035926;28;20060;-82
2023/07/28 10:57:51;;;;;;;1.65;1.20;;;22.80;82.30;;;;;;5036979;28;20135;-81
2023/07/28 11:00:19;;;;;;;1.90;1.30;;;22.60;82.60;;;;;;5036564;28;20056;-81
2023/07/28 11:02:49;;;;;;;1.35;1.02;;;22.40;79.50;;;;;;5053094;28;20072;-82
2023/07/28 11:05:21;;;;;;;0.82;0.73;;;22.30;80.00;;;;;;5036474;28;20060;-82
2023/07/28 11:07:54;;;;;;;0.95;0.60;;;22.20;80.00;;;;;;5036366;28;20484;-81
2023/07/28 11:10:21;;;;;;;1.40;0.80;;;22.10;81.90;;;;;;5036547;28;20068;-81
2023/07/28 11:12:49;;;;;;;1.55;0.90;;;22.10;81.40;;;;;;5036363;28;20053;-82
2023/07/28 11:15:16;;;;;;;1.50;0.98;;;22.20;84.10;;;;;;5034090;28;20059;-82
2023/07/28 11:17:48;;;;;;;1.13;0.70;;;22.50;82.40;;;;;;5034057;28;20051;-82
2023/07/28 11:20:18;;;;;;;0.70;0.60;;;22.50;78.30;;;;;;5015977;28;20052;-81
2023/07/28 11:22:52;;;;;;;0.85;0.65;;;22.50;77.60;;;;;;5039845;28;20051;-82
2023/07/28 11:25:20;;;;;;;1.55;0.73;;;22.40;79.40;;;;;;5024736;28;20139;-82
2023/07/28 11:27:47;;;;;;;1.17;0.68;;;22.40;77.90;;;;;;5034943;28;20048;-82
2023/07/28 11:30:16;;;;;;;1.17;0.80;;;22.30;80.50;;;;;;5019674;28;20068;-82
2023/07/28 11:32:44;;;;;;;0.50;0.43;;;22.20;80.00;;;;;;5024954;28;20053;-82
2023/07/28 11:35:14;;;;;;;0.50;0.40;;;22.20;81.10;;;;;;5008558;28;20049;-82
2023/07/28 11:37:42;;;;;;;1.05;0.50;;;22.40;82.10;;;;;;5041378;28;20169;-82
2023/07/28 11:40:12;;;;;;;0.30;0.28;;;22.50;79.70;;;;;;5023468;28;20088;-82
2023/07/28 11:42:43;;;;;;;0.50;0.40;;;22.60;82.10;;;;;;5018783;28;20045;-82
2023/07/28 11:45:10;;;;;;;0.60;0.30;;;22.70;79.10;;;;;;5031632;28;20052;-80
2023/07/28 11:47:37;;;;;;;0.45;0.32;;;22.70;79.10;;;;;;5011083;28;20053;-82
2023/07/28 11:50:04;;;;;;;0.20;0.20;;;22.60;79.00;;;;;;5014370;28;20097;-81
2023/07/28 11:52:36;;;;;;;0.30;0.30;;;22.50;91.20;;;;;;5037046;28;20080;-81
2023/07/28 11:55:06;;;;;;;0.20;0.20;;;22.60;81.30;;;;;;5029814;28;20106;-81
2023/07/28 11:57:33;;;;;;;0.20;0.20;;;22.70;78.80;;;;;;5043768;28;20048;-81
2023/07/28 12:00:00;;;;;;;0.22;0.20;;;22.50;77.60;;;;;;5037505;28;20806;-79
2023/07/28 12:02:27;;;;;;;0.30;0.20;;;22.60;81.00;;;;;;5016095;28;20045;-81
2023/07/28 12:04:56;;;;;;;0.10;0.10;;;22.60;79.40;;;;;;5024609;28;20048;-81
2023/07/28 12:07:32;;;;;;;0.20;0.20;;;22.60;80.10;;;;;;5046622;28;20389;-81
2023/07/28 12:10:05;;;;;;;0.85;0.65;;;22.70;80.00;;;;;;5050153;28;20131;-81
2023/07/28 12:12:43;;;;;;;1.13;0.85;;;22.70;79.10;;;;;;5035131;28;20076;-81
2023/07/28 12:15:27;;;;;;;0.80;0.50;;;23.00;79.50;;;;;;5034770;28;20072;-81
2023/07/28 12:18:15;;;;;;;0.60;0.50;;;23.50;79.40;;;;;;5033283;28;20125;-81
2023/07/28 12:20:47;;;;;;;0.47;0.47;;;23.90;73.30;;;;;;5020841;28;20553;-82
2023/07/28 12:23:15;;;;;;;0.47;0.40;;;24.50;77.40;;;;;;5024254;28;20049;-81
2023/07/28 12:25:44;;;;;;;0.30;0.30;;;24.90;85.60;;;;;;5014761;28;20127;-82
2023/07/28 12:28:11;;;;;;;0.20;0.20;;;25.30;71.40;;;;;;5013120;28;20110;-81
2023/07/28 12:30:41;;;;;;;0.20;0.20;;;25.50;64.20;;;;;;5011686;28;20060;-82
2023/07/28 12:33:08;;;;;;;0.15;0.15;;;25.60;62.90;;;;;;5044872;28;20538;-82
2023/07/28 12:35:47;;;;;;;0.15;0.15;;;25.90;62.20;;;;;;5042860;28;20136;-82
2023/07/28 12:38:16;;;;;;;0.10;0.10;;;25.80;56.00;;;;;;5024807;28;20143;-82
2023/07/28 12:40:46;;;;;;;0.10;0.10;;;25.60;54.20;;;;;;5044746;28;20076;-83
2023/07/28 12:43:15;;;;;;;0.20;0.10;;;25.60;53.90;;;;;;5049434;28;20045;-82
2023/07/28 12:45:46;;;;;;;0.10;0.10;;;25.70;54.90;;;;;;5028875;28;20286;-82
2023/07/28 12:48:16;;;;;;;0.20;0.20;;;25.50;51.00;;;;;;5047448;28;20052;-82
2023/07/28 12:50:46;;;;;;;0.38;0.22;;;25.40;50.90;;;;;;5016492;28;20753;-81
2023/07/28 12:53:13;;;;;;;0.45;0.20;;;25.20;50.70;;;;;;5010798;28;20072;-82